createdAt,value
2023-08-18T00:00:41.828Z,19.70
2023-08-18T00:01:41.783Z,19.70
2023-08-18T00:02:41.794Z,21.10
2023-08-18T00:03:41.866Z,19.90
2023-08-18T00:04:41.763Z,19.70
2023-08-18T00:05:41.733Z,19.50
2023-08-18T00:06:41.747Z,20.10
2023-08-18T00:07:41.711Z,20.40
2023-08-18T00:08:41.700Z,19.10
2023-08-18T00:09:41.727Z,20.00
2023-08-18T00:10:41.676Z,20.30
2023-08-18T00:11:41.669Z,21.50
2023-08-18T00:12:41.682Z,20.30
2023-08-18T00:13:41.649Z,20.20
2023-08-18T00:14:41.633Z,19.10
2023-08-18T00:15:41.646Z,20.40
2023-08-18T00:16:41.657Z,19.90
2023-08-18T00:17:41.718Z,20.80
2023-08-18T00:18:41.618Z,19.90
2023-08-18T00:19:41.588Z,20.80
2023-08-18T00:20:41.569Z,20.00
2023-08-18T00:21:41.586Z,20.70
2023-08-18T00:22:41.571Z,21.10
2023-08-18T00:23:41.538Z,20.50
2023-08-18T00:24:41.559Z,21.30
2023-08-18T00:25:41.519Z,20.20
2023-08-18T00:26:41.536Z,21.80
2023-08-18T00:27:41.515Z,21.10
2023-08-18T00:28:41.491Z,21.40
2023-08-18T00:29:41.510Z,21.70
2023-08-18T00:30:41.465Z,21.00
2023-08-18T00:31:41.481Z,22.30
2023-08-18T00:32:41.501Z,22.10
2023-08-18T00:33:41.457Z,21.90
2023-08-18T00:34:41.426Z,22.00
2023-08-18T00:35:41.413Z,21.30
2023-08-18T00:36:41.418Z,21.90
2023-08-18T00:37:41.390Z,22.90
2023-08-18T00:38:41.382Z,21.50
2023-08-18T00:39:41.415Z,22.90
2023-08-18T00:40:41.364Z,22.50
2023-08-18T00:41:41.355Z,22.40
2023-08-18T00:42:41.335Z,22.70
2023-08-18T00:43:41.341Z,21.90
2023-08-18T00:44:41.320Z,22.60
2023-08-18T00:45:41.386Z,21.60
2023-08-18T00:46:41.310Z,22.00
2023-08-18T00:47:41.295Z,23.30
2023-08-18T00:48:41.275Z,21.80
2023-08-18T00:49:41.266Z,22.70
2023-08-18T00:50:41.249Z,22.10
2023-08-18T00:51:41.257Z,22.90
2023-08-18T00:52:41.237Z,22.20
2023-08-18T00:53:41.232Z,22.70
2023-08-18T00:54:41.229Z,21.80
2023-08-18T00:55:41.220Z,22.80
2023-08-18T00:56:41.187Z,23.20
2023-08-18T00:57:41.197Z,23.40
2023-08-18T00:58:41.183Z,22.90
2023-08-18T00:59:41.154Z,23.60
2023-08-18T01:00:41.140Z,23.50
2023-08-18T01:01:41.170Z,23.40
2023-08-18T01:02:41.135Z,23.20
2023-08-18T01:03:41.150Z,23.90
2023-08-18T01:04:41.135Z,24.20
2023-08-18T01:05:41.099Z,25.00
2023-08-18T01:06:41.154Z,23.10
2023-08-18T01:07:41.078Z,24.40
2023-08-18T01:08:41.062Z,24.50
2023-08-18T01:09:41.073Z,23.70
2023-08-18T01:10:41.042Z,24.00
2023-08-18T01:11:41.038Z,24.80
2023-08-18T01:12:41.031Z,24.90
2023-08-18T01:13:41.002Z,23.30
2023-08-18T01:14:40.994Z,24.80
2023-08-18T01:15:41.019Z,24.10
2023-08-18T01:16:41.003Z,24.40
2023-08-18T01:17:40.992Z,25.30
2023-08-18T01:18:40.955Z,25.20
2023-08-18T01:19:40.942Z,24.70
2023-08-18T01:20:40.963Z,25.70
2023-08-18T01:21:40.941Z,25.20
2023-08-18T01:22:40.909Z,24.30
2023-08-18T01:23:40.897Z,25.80
2023-08-18T01:24:40.896Z,25.90
2023-08-18T01:25:40.878Z,24.90
2023-08-18T01:26:40.866Z,24.30
2023-08-18T01:27:40.890Z,24.70
2023-08-18T01:28:40.855Z,26.50
2023-08-18T01:29:40.908Z,25.00
2023-08-18T01:30:40.946Z,24.50
2023-08-18T01:31:40.847Z,24.50
2023-08-18T01:32:40.815Z,24.40
2023-08-18T01:33:40.835Z,24.70
2023-08-18T01:34:40.787Z,24.50
2023-08-18T01:35:40.776Z,24.20
2023-08-18T01:36:40.758Z,24.30
2023-08-18T01:37:40.756Z,23.30
2023-08-18T01:38:40.748Z,23.80
2023-08-18T01:39:40.757Z,22.50
2023-08-18T01:40:40.747Z,24.50
2023-08-18T01:41:40.721Z,24.00
2023-08-18T01:42:40.706Z,22.80
2023-08-18T01:43:40.707Z,23.80
2023-08-18T01:44:40.677Z,24.40
2023-08-18T01:45:40.684Z,22.70
2023-08-18T01:46:40.749Z,23.20
2023-08-18T01:47:40.737Z,23.60
2023-08-18T01:48:40.637Z,25.20
2023-08-18T01:49:40.620Z,25.10
2023-08-18T01:50:40.626Z,23.50
2023-08-18T01:51:40.635Z,25.10
2023-08-18T01:52:40.592Z,23.80
2023-08-18T01:53:40.614Z,24.00
2023-08-18T01:54:40.574Z,23.00
2023-08-18T01:55:40.553Z,24.40
2023-08-18T01:56:40.563Z,23.80
2023-08-18T01:57:40.571Z,23.70
2023-08-18T01:58:40.529Z,24.10
2023-08-18T01:59:40.534Z,25.30
2023-08-18T02:00:40.537Z,25.90
2023-08-18T02:01:40.578Z,25.00
2023-08-18T02:02:40.538Z,25.00
2023-08-18T02:03:40.706Z,25.10
2023-08-18T02:04:40.488Z,25.00
2023-08-18T02:05:40.527Z,25.00
2023-08-18T02:06:40.442Z,26.10
2023-08-18T02:07:40.431Z,25.40
2023-08-18T02:08:40.426Z,25.40
2023-08-18T02:09:40.505Z,26.10
2023-08-18T02:10:40.400Z,26.30
2023-08-18T02:11:40.387Z,26.70
2023-08-18T02:12:40.412Z,24.80
2023-08-18T02:13:40.368Z,25.40
2023-08-18T02:14:40.360Z,25.30
2023-08-18T02:15:40.384Z,25.30
2023-08-18T02:16:40.365Z,25.10
2023-08-18T02:17:40.348Z,25.70
2023-08-18T02:18:40.349Z,25.80
2023-08-18T02:19:40.302Z,25.00
2023-08-18T02:20:40.299Z,26.60
2023-08-18T02:21:40.324Z,24.50
2023-08-18T02:22:40.276Z,25.90
2023-08-18T02:23:40.281Z,25.50
2023-08-18T02:24:40.282Z,26.30
2023-08-18T02:25:40.240Z,25.50
2023-08-18T02:26:40.231Z,26.00
2023-08-18T02:27:40.264Z,25.60
2023-08-18T02:28:40.227Z,26.10
2023-08-18T02:29:40.201Z,26.20
2023-08-18T02:30:40.188Z,27.50
2023-08-18T02:31:40.232Z,25.60
2023-08-18T02:32:40.176Z,22.90
2023-08-18T02:33:40.201Z,23.30
2023-08-18T02:34:40.177Z,24.00
2023-08-18T02:35:40.138Z,22.70
2023-08-18T02:36:40.125Z,22.60
2023-08-18T02:37:40.153Z,23.40
2023-08-18T02:38:40.103Z,23.40
2023-08-18T02:39:40.116Z,24.20
2023-08-18T02:40:40.121Z,24.70
2023-08-18T02:41:40.072Z,24.60
2023-08-18T02:42:40.064Z,24.10
2023-08-18T02:43:40.080Z,24.50
2023-08-18T02:44:40.045Z,25.40
2023-08-18T02:45:40.075Z,26.50
2023-08-18T02:46:40.028Z,26.60
2023-08-18T02:47:40.050Z,27.00
2023-08-18T02:48:40.012Z,26.00
2023-08-18T02:49:39.991Z,25.90
2023-08-18T02:50:39.987Z,27.00
2023-08-18T02:51:39.992Z,26.40
2023-08-18T02:52:39.957Z,26.50
2023-08-18T02:53:39.955Z,27.20
2023-08-18T02:54:39.936Z,27.40
2023-08-18T02:55:39.921Z,27.20
2023-08-18T02:56:39.926Z,27.60
2023-08-18T02:57:39.934Z,26.80
2023-08-18T02:58:39.889Z,26.20
2023-08-18T02:59:39.885Z,26.30
2023-08-18T03:00:39.892Z,25.30
2023-08-18T03:01:39.939Z,25.30
2023-08-18T03:02:39.860Z,23.80
2023-08-18T03:03:39.905Z,26.20
2023-08-18T03:04:39.856Z,24.80
2023-08-18T03:05:39.855Z,24.90
2023-08-18T03:06:39.803Z,25.40
2023-08-18T03:07:39.794Z,23.90
2023-08-18T03:08:39.809Z,23.10
2023-08-18T03:09:39.809Z,22.90
2023-08-18T03:10:39.762Z,23.90
2023-08-18T03:11:39.802Z,22.10
2023-08-18T03:12:39.746Z,22.20
2023-08-18T03:13:39.806Z,22.40
2023-08-18T03:14:39.739Z,23.20
2023-08-18T03:15:39.736Z,23.00
2023-08-18T03:16:39.707Z,21.90
2023-08-18T03:17:39.745Z,22.90
2023-08-18T03:18:39.685Z,25.20
2023-08-18T03:19:39.678Z,22.90
2023-08-18T03:20:39.657Z,21.90
2023-08-18T03:21:39.678Z,22.30
2023-08-18T03:22:39.637Z,21.80
2023-08-18T03:23:39.642Z,21.50
2023-08-18T03:24:39.620Z,21.10
2023-08-18T03:25:39.623Z,21.30
2023-08-18T03:26:39.604Z,21.30
2023-08-18T03:27:39.626Z,21.20
2023-08-18T03:28:39.572Z,22.10
2023-08-18T03:29:39.563Z,20.60
2023-08-18T03:30:39.558Z,21.90
2023-08-18T03:31:39.568Z,21.30
2023-08-18T03:32:39.567Z,22.00
2023-08-18T03:33:39.587Z,21.30
2023-08-18T03:34:39.528Z,22.00
2023-08-18T03:35:39.749Z,21.40
2023-08-18T03:36:39.491Z,21.10
2023-08-18T03:37:39.490Z,20.40
2023-08-18T03:38:39.502Z,22.00
2023-08-18T03:39:39.508Z,21.50
2023-08-18T03:40:39.448Z,21.60
2023-08-18T03:41:39.441Z,20.30
2023-08-18T03:42:39.427Z,21.40
2023-08-18T03:43:39.439Z,21.10
2023-08-18T03:44:39.408Z,22.20
2023-08-18T03:45:39.459Z,20.70
2023-08-18T03:46:39.377Z,19.60
2023-08-18T03:47:39.427Z,20.60
2023-08-18T03:48:39.357Z,20.70
2023-08-18T03:49:39.352Z,20.10
2023-08-18T03:50:39.373Z,20.20
2023-08-18T03:51:39.359Z,20.30
2023-08-18T03:52:39.312Z,19.90
2023-08-18T03:53:39.342Z,20.80
2023-08-18T03:54:39.309Z,19.80
2023-08-18T03:55:39.295Z,19.70
2023-08-18T03:56:39.301Z,20.40
2023-08-18T03:57:39.282Z,18.70
2023-08-18T03:58:39.249Z,21.30
2023-08-18T03:59:39.256Z,18.80
2023-08-18T04:00:39.309Z,19.20
2023-08-18T04:01:39.293Z,18.00
2023-08-18T04:02:39.254Z,18.70
2023-08-18T04:03:39.313Z,18.80
2023-08-18T04:04:39.187Z,18.10
2023-08-18T04:05:39.175Z,18.80
2023-08-18T04:06:39.177Z,18.40
2023-08-18T04:07:39.155Z,18.10
2023-08-18T04:08:39.170Z,17.30
2023-08-18T04:09:39.173Z,18.60
2023-08-18T04:10:39.129Z,17.70
2023-08-18T04:11:39.123Z,18.40
2023-08-18T04:12:39.126Z,18.40
2023-08-18T04:13:39.105Z,18.30
2023-08-18T04:14:39.087Z,20.00
2023-08-18T04:15:39.479Z,19.10
2023-08-18T04:16:39.061Z,18.20
2023-08-18T04:17:39.094Z,18.30
2023-08-18T04:18:39.051Z,18.20
2023-08-18T04:19:39.034Z,18.30
2023-08-18T04:20:39.056Z,17.90
2023-08-18T04:21:39.035Z,17.70
2023-08-18T04:22:38.999Z,17.60
2023-08-18T04:23:38.990Z,17.10
2023-08-18T04:24:38.989Z,17.00
2023-08-18T04:25:38.965Z,17.50
2023-08-18T04:26:38.955Z,17.90
2023-08-18T04:27:38.973Z,17.50
2023-08-18T04:28:38.941Z,17.90
2023-08-18T04:29:38.922Z,17.60
2023-08-18T04:30:38.929Z,18.00
2023-08-18T04:31:38.908Z,17.50
2023-08-18T04:32:38.900Z,17.80
2023-08-18T04:33:38.924Z,17.60
2023-08-18T04:34:38.872Z,17.80
2023-08-18T04:35:38.860Z,19.30
2023-08-18T04:36:38.868Z,18.90
2023-08-18T04:37:38.838Z,19.50
2023-08-18T04:38:38.841Z,20.70
2023-08-18T04:39:38.841Z,19.50
2023-08-18T04:40:38.808Z,20.30
2023-08-18T04:41:38.806Z,20.30
2023-08-18T04:42:38.789Z,24.20
2023-08-18T04:43:38.772Z,21.10
2023-08-18T04:44:38.785Z,21.40
2023-08-18T04:45:38.775Z,22.10
2023-08-18T04:46:38.820Z,20.90
2023-08-18T04:47:38.745Z,21.40
2023-08-18T04:48:38.721Z,20.60
2023-08-18T04:49:38.714Z,21.90
2023-08-18T04:50:38.719Z,21.10
2023-08-18T04:51:38.712Z,21.60
2023-08-18T04:52:38.681Z,21.10
2023-08-18T04:53:38.676Z,20.50
2023-08-18T04:54:38.669Z,21.20
2023-08-18T04:55:38.652Z,23.10
2023-08-18T04:56:38.698Z,22.10
2023-08-18T04:57:38.650Z,21.00
2023-08-18T04:58:38.615Z,21.30
2023-08-18T04:59:38.607Z,22.10
2023-08-18T05:00:38.631Z,21.20
2023-08-18T05:01:38.583Z,22.30
2023-08-18T05:02:38.615Z,22.30
2023-08-18T05:03:38.688Z,22.60
2023-08-18T05:04:38.553Z,22.00
2023-08-18T05:05:38.541Z,22.10
2023-08-18T05:06:38.541Z,21.60
2023-08-18T05:07:38.517Z,22.30
2023-08-18T05:08:38.517Z,21.70
2023-08-18T05:09:38.538Z,21.70
2023-08-18T05:10:38.491Z,21.20
2023-08-18T05:11:38.482Z,21.50
2023-08-18T05:12:38.476Z,24.00
2023-08-18T05:13:38.466Z,23.00
2023-08-18T05:14:38.448Z,21.40
2023-08-18T05:15:38.803Z,22.60
2023-08-18T05:16:38.472Z,21.00
2023-08-18T05:17:38.439Z,21.10
2023-08-18T05:18:38.415Z,19.20
2023-08-18T05:19:38.422Z,17.30
2023-08-18T05:20:38.390Z,17.20
2023-08-18T05:21:38.400Z,16.50
2023-08-18T05:22:38.372Z,16.20
2023-08-18T05:23:38.354Z,15.80
2023-08-18T05:24:38.372Z,17.60
2023-08-18T05:25:38.330Z,15.70
2023-08-18T05:26:38.330Z,14.90
2023-08-18T05:27:38.376Z,16.00
2023-08-18T05:28:38.368Z,15.10
2023-08-18T05:29:38.320Z,14.70
2023-08-18T05:30:38.327Z,15.30
2023-08-18T05:31:38.268Z,14.70
2023-08-18T05:32:38.295Z,15.30
2023-08-18T05:33:38.277Z,15.70
2023-08-18T05:34:38.241Z,15.50
2023-08-18T05:35:38.232Z,14.80
2023-08-18T05:36:38.223Z,15.10
2023-08-18T05:37:38.224Z,14.10
2023-08-18T05:38:38.200Z,14.70
2023-08-18T05:39:38.238Z,14.40
2023-08-18T05:40:38.207Z,14.40
2023-08-18T05:41:38.167Z,13.20
2023-08-18T05:42:38.185Z,14.40
2023-08-18T05:43:38.156Z,13.10
2023-08-18T05:44:38.133Z,14.10
2023-08-18T05:45:38.166Z,12.90
2023-08-18T05:46:38.247Z,14.60
2023-08-18T05:47:38.213Z,14.00
2023-08-18T05:48:38.107Z,13.40
2023-08-18T05:49:38.076Z,12.70
2023-08-18T05:50:38.092Z,11.70
2023-08-18T05:51:38.080Z,13.00
2023-08-18T05:52:38.067Z,12.80
2023-08-18T05:53:38.131Z,12.40
2023-08-18T05:54:38.042Z,11.70
2023-08-18T05:55:38.019Z,12.20
2023-08-18T05:56:38.034Z,13.00
2023-08-18T05:57:38.026Z,12.50
2023-08-18T05:58:37.997Z,12.20
2023-08-18T05:59:37.991Z,12.60
2023-08-18T06:00:37.975Z,11.70
2023-08-18T06:01:37.975Z,11.30
2023-08-18T06:02:37.988Z,12.00
2023-08-18T06:03:37.983Z,12.40
2023-08-18T06:04:37.920Z,11.90
2023-08-18T06:05:37.913Z,11.40
2023-08-18T06:06:37.927Z,12.60
2023-08-18T06:07:37.890Z,12.40
2023-08-18T06:08:37.911Z,11.90
2023-08-18T06:09:37.907Z,12.60
2023-08-18T06:10:37.862Z,11.60
2023-08-18T06:11:37.872Z,11.30
2023-08-18T06:12:37.861Z,11.90
2023-08-18T06:13:37.828Z,11.40
2023-08-18T06:14:37.839Z,11.40
2023-08-18T06:15:37.876Z,11.50
2023-08-18T06:16:37.849Z,10.90
2023-08-18T06:17:37.793Z,10.30
2023-08-18T06:18:37.791Z,10.80
2023-08-18T06:19:37.792Z,10.70
2023-08-18T06:20:37.751Z,10.70
2023-08-18T06:21:37.770Z,10.80
2023-08-18T06:22:37.739Z,11.40
2023-08-18T06:23:37.741Z,10.90
2023-08-18T06:24:37.709Z,10.70
2023-08-18T06:25:37.698Z,10.00
2023-08-18T06:26:37.693Z,10.90
2023-08-18T06:27:37.703Z,11.30
2023-08-18T06:28:37.663Z,10.90
2023-08-18T06:29:37.663Z,11.00
2023-08-18T06:30:37.657Z,10.70
2023-08-18T06:31:37.665Z,11.20
2023-08-18T06:32:37.659Z,10.70
2023-08-18T06:33:37.657Z,12.60
2023-08-18T06:34:37.666Z,11.10
2023-08-18T06:35:37.590Z,11.20
2023-08-18T06:36:37.588Z,10.40
2023-08-18T06:37:37.578Z,11.10
2023-08-18T06:38:37.561Z,12.20
2023-08-18T06:39:37.682Z,11.00
2023-08-18T06:40:37.532Z,11.00
2023-08-18T06:41:37.547Z,12.00
2023-08-18T06:42:37.525Z,11.60
2023-08-18T06:43:37.578Z,11.20
2023-08-18T06:44:37.494Z,12.00
2023-08-18T06:45:37.565Z,11.90
2023-08-18T06:46:37.509Z,12.20
2023-08-18T06:47:37.496Z,11.20
2023-08-18T06:48:37.454Z,10.70
2023-08-18T06:49:37.492Z,11.20
2023-08-18T06:50:37.429Z,11.20
2023-08-18T06:51:37.475Z,11.50
2023-08-18T06:52:37.471Z,12.20
2023-08-18T06:53:40.281Z,12.00
2023-08-18T06:54:37.513Z,11.70
2023-08-18T06:55:47.496Z,12.20
2023-08-18T06:56:37.367Z,12.50
2023-08-18T06:57:37.494Z,12.30
2023-08-18T06:58:37.351Z,12.10
2023-08-18T06:59:37.350Z,12.80
2023-08-18T07:00:37.334Z,12.50
2023-08-18T07:01:37.397Z,12.10
2023-08-18T07:02:37.374Z,12.90
2023-08-18T07:03:37.422Z,12.10
2023-08-18T07:04:37.282Z,12.30
2023-08-18T07:05:37.267Z,13.00
2023-08-18T07:06:37.264Z,12.60
2023-08-18T07:07:37.272Z,12.00
2023-08-18T07:08:37.238Z,12.40
2023-08-18T07:09:37.290Z,12.10
2023-08-18T07:10:37.225Z,12.30
2023-08-18T07:11:37.217Z,11.80
2023-08-18T07:12:37.203Z,12.20
2023-08-18T07:13:37.198Z,12.90
2023-08-18T07:14:37.179Z,12.80
2023-08-18T07:15:37.212Z,12.10
2023-08-18T07:16:37.161Z,11.70
2023-08-18T07:17:37.177Z,12.60
2023-08-18T07:18:37.164Z,13.00
2023-08-18T07:19:37.132Z,13.20
2023-08-18T07:20:37.128Z,12.80
2023-08-18T07:21:37.143Z,13.00
2023-08-18T07:22:37.097Z,12.90
2023-08-18T07:23:37.095Z,13.10
2023-08-18T07:24:37.091Z,12.70
2023-08-18T07:25:37.055Z,13.00
2023-08-18T07:26:37.075Z,13.40
2023-08-18T07:27:37.089Z,13.40
2023-08-18T07:28:37.042Z,13.80
2023-08-18T07:29:37.028Z,13.40
2023-08-18T07:30:37.027Z,14.20
2023-08-18T07:31:37.042Z,14.30
2023-08-18T07:32:37.003Z,14.20
2023-08-18T07:33:37.001Z,14.00
2023-08-18T07:34:37.000Z,12.90
2023-08-18T07:35:36.965Z,16.70
2023-08-18T07:36:36.958Z,13.00
2023-08-18T07:37:53.832Z,13.50
2023-08-18T07:38:36.967Z,14.20
2023-08-18T07:39:36.953Z,14.20
2023-08-18T07:40:36.910Z,14.60
2023-08-18T07:41:36.888Z,13.50
2023-08-18T07:42:36.889Z,13.60
2023-08-18T07:43:36.881Z,14.50
2023-08-18T07:44:36.854Z,13.70
2023-08-18T07:45:36.898Z,14.90
2023-08-18T07:46:36.874Z,13.50
2023-08-18T07:47:36.846Z,13.40
2023-08-18T07:48:36.816Z,13.50
2023-08-18T07:49:36.814Z,13.50
2023-08-18T07:50:36.801Z,14.00
2023-08-18T07:51:36.815Z,14.30
2023-08-18T07:52:36.777Z,13.80
2023-08-18T07:53:36.779Z,13.80
2023-08-18T07:54:36.754Z,13.50
2023-08-18T07:55:36.740Z,14.40
2023-08-18T07:56:36.759Z,14.10
2023-08-18T07:57:36.771Z,13.80
2023-08-18T07:58:37.083Z,14.00
2023-08-18T07:59:36.708Z,14.20
2023-08-18T08:00:36.680Z,13.80
2023-08-18T08:01:36.686Z,14.40
2023-08-18T08:02:36.970Z,13.20
2023-08-18T08:03:36.814Z,13.70
2023-08-18T08:04:36.646Z,13.60
2023-08-18T08:05:36.643Z,13.30
2023-08-18T08:06:36.627Z,13.80
2023-08-18T08:07:36.653Z,14.20
2023-08-18T08:08:36.616Z,13.00
2023-08-18T08:09:36.619Z,14.30
2023-08-18T08:10:36.599Z,14.20
2023-08-18T08:11:36.564Z,13.70
2023-08-18T08:12:36.553Z,12.80
2023-08-18T08:13:36.541Z,14.80
2023-08-18T08:14:36.539Z,14.00
2023-08-18T08:15:37.870Z,14.10
2023-08-18T08:16:36.526Z,14.10
2023-08-18T08:17:36.517Z,14.30
2023-08-18T08:18:36.491Z,14.20
2023-08-18T08:19:36.494Z,14.20
2023-08-18T08:20:36.475Z,15.00
2023-08-18T08:21:37.079Z,13.80
2023-08-18T08:22:36.471Z,14.70
2023-08-18T08:23:36.466Z,13.50
2023-08-18T08:24:36.500Z,13.20
2023-08-18T08:25:36.433Z,13.80
2023-08-18T08:26:36.413Z,15.00
2023-08-18T08:27:36.462Z,15.40
2023-08-18T08:28:36.386Z,14.70
2023-08-18T08:29:36.386Z,14.30
2023-08-18T08:30:37.199Z,14.00
2023-08-18T08:31:36.404Z,13.60
2023-08-18T08:32:36.425Z,14.00
2023-08-18T08:33:36.431Z,13.30
2023-08-18T08:34:36.330Z,14.00
2023-08-18T08:35:36.320Z,12.60
2023-08-18T08:36:36.306Z,13.60
2023-08-18T08:37:38.991Z,12.90
2023-08-18T08:38:36.273Z,12.70
2023-08-18T08:39:36.651Z,13.10
2023-08-18T08:40:36.257Z,12.80
2023-08-18T08:41:36.307Z,12.40
2023-08-18T08:42:36.240Z,13.00
2023-08-18T08:43:36.224Z,14.20
2023-08-18T08:44:36.221Z,12.40
2023-08-18T08:45:36.508Z,13.10
2023-08-18T08:46:36.244Z,13.80
2023-08-18T08:47:36.190Z,13.50
2023-08-18T08:48:36.175Z,13.80
2023-08-18T08:49:36.190Z,13.60
2023-08-18T08:50:36.144Z,13.50
2023-08-18T08:51:36.721Z,13.20
2023-08-18T08:52:36.124Z,13.50
2023-08-18T08:53:36.114Z,13.90
2023-08-18T08:54:36.119Z,14.80
2023-08-18T08:55:36.113Z,13.70
2023-08-18T08:56:36.090Z,13.70
2023-08-18T08:57:36.103Z,13.50
2023-08-18T08:58:36.064Z,12.80
2023-08-18T08:59:36.060Z,13.50
2023-08-18T09:00:36.061Z,12.60
2023-08-18T09:01:40.934Z,14.60
2023-08-18T09:02:36.106Z,13.60
2023-08-18T09:03:36.605Z,12.90
2023-08-18T09:04:35.996Z,12.20
2023-08-18T09:05:36.014Z,13.10
2023-08-18T09:06:35.974Z,12.60
2023-08-18T09:07:35.988Z,13.40
2023-08-18T09:08:35.967Z,13.80
2023-08-18T09:09:35.981Z,12.90
2023-08-18T09:10:35.946Z,14.10
2023-08-18T09:11:35.941Z,13.90
2023-08-18T09:12:36.228Z,14.10
2023-08-18T09:13:35.909Z,14.10
2023-08-18T09:14:35.889Z,15.00
2023-08-18T09:15:35.923Z,13.50
2023-08-18T09:16:35.870Z,14.20
2023-08-18T09:18:35.852Z,14.10
2023-08-18T09:19:35.849Z,13.30
2023-08-18T09:20:35.837Z,11.70
2023-08-18T09:21:35.846Z,12.60
2023-08-18T09:22:35.807Z,12.20
2023-08-18T09:23:35.794Z,12.80
2023-08-18T09:24:35.813Z,14.30
2023-08-18T09:25:35.790Z,14.40
2023-08-18T09:26:35.770Z,13.50
2023-08-18T09:27:35.777Z,12.50
2023-08-18T09:28:35.759Z,12.00
2023-08-18T09:29:35.811Z,11.70
2023-08-18T09:30:35.755Z,11.20
2023-08-18T09:31:35.772Z,11.20
2023-08-18T09:32:36.019Z,11.30
2023-08-18T09:33:35.781Z,10.70
2023-08-18T09:34:35.688Z,11.30
2023-08-18T09:35:35.674Z,12.20
2023-08-18T09:36:35.657Z,10.70
2023-08-18T09:37:35.663Z,10.40
2023-08-18T09:38:36.309Z,10.20
2023-08-18T09:39:39.101Z,9.90
2023-08-18T09:40:35.617Z,9.10
2023-08-18T09:41:35.644Z,9.50
2023-08-18T09:42:35.592Z,10.30
2023-08-18T09:43:35.599Z,11.00
2023-08-18T09:44:35.572Z,10.10
2023-08-18T09:45:35.595Z,10.80
2023-08-18T09:46:35.583Z,11.20
2023-08-18T09:47:35.582Z,9.50
2023-08-18T09:48:35.528Z,10.70
2023-08-18T09:49:35.535Z,10.30
2023-08-18T09:50:35.509Z,10.30
2023-08-18T09:51:35.550Z,11.10
2023-08-18T09:52:35.497Z,9.90
2023-08-18T09:53:35.499Z,10.40
2023-08-18T09:54:35.468Z,8.90
2023-08-18T09:55:35.499Z,8.40
2023-08-18T09:56:36.479Z,9.20
2023-08-18T09:57:35.474Z,9.70
2023-08-18T09:58:35.421Z,10.00
2023-08-18T09:59:35.426Z,9.20
2023-08-18T10:00:35.406Z,10.40
2023-08-18T10:01:35.482Z,9.00
2023-08-18T10:02:35.442Z,9.60
2023-08-18T10:03:35.399Z,9.80
2023-08-18T10:04:35.385Z,9.60
2023-08-18T10:05:35.370Z,10.40
2023-08-18T10:06:35.343Z,9.20
2023-08-18T10:07:35.341Z,10.00
2023-08-18T10:08:35.328Z,9.80
2023-08-18T10:09:35.355Z,8.90
2023-08-18T10:10:35.334Z,9.40
2023-08-18T10:11:49.467Z,9.80
2023-08-18T10:12:35.303Z,8.70
2023-08-18T10:13:35.276Z,8.40
2023-08-18T10:14:35.248Z,8.80
2023-08-18T10:15:35.287Z,8.90
2023-08-18T10:16:35.278Z,9.00
2023-08-18T10:17:35.243Z,8.50
2023-08-18T10:18:35.275Z,7.40
2023-08-18T10:19:35.197Z,8.20
2023-08-18T10:20:35.204Z,7.70
2023-08-18T10:21:35.210Z,9.00
2023-08-18T10:22:35.190Z,7.50
2023-08-18T10:23:35.156Z,7.80
2023-08-18T10:24:35.153Z,8.30
2023-08-18T10:25:35.147Z,9.20
2023-08-18T10:26:35.123Z,8.30
2023-08-18T10:27:35.142Z,8.00
2023-08-18T10:28:35.121Z,7.90
2023-08-18T10:29:35.837Z,9.80
2023-08-18T10:30:35.092Z,8.10
2023-08-18T10:31:35.085Z,8.50
2023-08-18T10:32:35.095Z,8.20
2023-08-18T10:33:35.080Z,9.40
2023-08-18T10:34:35.053Z,8.60
2023-08-18T10:35:35.043Z,8.60
2023-08-18T10:36:35.038Z,7.90
2023-08-18T10:37:35.012Z,8.40
2023-08-18T10:38:35.008Z,8.50
2023-08-18T10:39:35.015Z,8.20
2023-08-18T10:40:35.078Z,9.50
2023-08-18T10:41:34.985Z,8.40
2023-08-18T10:42:35.233Z,7.60
2023-08-18T10:43:34.970Z,8.20
2023-08-18T10:44:34.945Z,7.50
2023-08-18T10:45:35.316Z,8.00
2023-08-18T10:46:34.945Z,7.60
2023-08-18T10:47:34.937Z,8.50
2023-08-18T10:48:34.891Z,8.00
2023-08-18T10:49:34.889Z,8.10
2023-08-18T10:50:35.711Z,7.70
2023-08-18T10:51:34.895Z,8.50
2023-08-18T10:52:34.862Z,7.10
2023-08-18T10:53:34.850Z,7.20
2023-08-18T10:54:34.826Z,8.90
2023-08-18T10:55:34.816Z,8.60
2023-08-18T10:56:34.821Z,7.60
2023-08-18T10:57:34.843Z,8.10
2023-08-18T10:58:34.795Z,7.00
2023-08-18T10:59:36.265Z,7.20
2023-08-18T11:00:34.798Z,7.70
2023-08-18T11:01:34.803Z,7.40
2023-08-18T11:02:34.804Z,7.80
2023-08-18T11:03:34.769Z,6.90
2023-08-18T11:04:34.790Z,6.70
2023-08-18T11:05:34.727Z,7.70
2023-08-18T11:06:34.728Z,7.10
2023-08-18T11:07:34.713Z,7.30
2023-08-18T11:08:34.675Z,7.30
2023-08-18T11:09:34.701Z,7.50
2023-08-18T11:10:34.667Z,7.00
2023-08-18T11:11:34.651Z,7.70
2023-08-18T11:12:34.638Z,7.60
2023-08-18T11:13:34.645Z,7.30
2023-08-18T11:14:34.642Z,7.30
2023-08-18T11:15:35.282Z,7.40
2023-08-18T11:16:34.596Z,7.30
2023-08-18T11:17:34.611Z,8.40
2023-08-18T11:18:34.628Z,7.50
2023-08-18T11:19:34.593Z,6.60
2023-08-18T11:20:34.584Z,7.00
2023-08-18T11:21:34.584Z,6.30
2023-08-18T11:22:34.532Z,7.10
2023-08-18T11:23:34.530Z,7.20
2023-08-18T11:24:34.522Z,8.50
2023-08-18T11:25:34.508Z,7.50
2023-08-18T11:26:34.527Z,7.90
2023-08-18T11:27:34.513Z,8.00
2023-08-18T11:28:34.507Z,7.20
2023-08-18T11:29:34.471Z,6.60
2023-08-18T11:30:34.465Z,7.20
2023-08-18T11:31:34.532Z,7.50
2023-08-18T11:32:34.471Z,7.60
2023-08-18T11:33:34.462Z,7.00
2023-08-18T11:34:34.423Z,6.90
2023-08-18T11:35:34.399Z,7.10
2023-08-18T11:36:34.399Z,7.60
2023-08-18T11:37:34.376Z,6.60
2023-08-18T11:38:34.380Z,7.00
2023-08-18T11:39:34.489Z,6.50
2023-08-18T11:40:34.353Z,6.20
2023-08-18T11:41:34.373Z,6.50
2023-08-18T11:42:34.342Z,6.80
2023-08-18T11:43:34.336Z,6.60
2023-08-18T11:44:34.312Z,6.70
2023-08-18T11:45:34.339Z,6.70
2023-08-18T11:46:34.324Z,6.80
2023-08-18T11:47:34.310Z,6.30
2023-08-18T11:48:34.275Z,6.50
2023-08-18T11:49:34.277Z,6.10
2023-08-18T11:50:34.259Z,6.60
2023-08-18T11:51:34.288Z,6.70
2023-08-18T11:52:34.226Z,6.80
2023-08-18T11:53:34.226Z,7.00
2023-08-18T11:54:34.204Z,6.50
2023-08-18T11:55:34.242Z,6.90
2023-08-18T11:56:34.207Z,7.00
2023-08-18T11:57:34.226Z,6.70
2023-08-18T11:58:34.161Z,6.20
2023-08-18T11:59:34.155Z,6.90
2023-08-18T12:00:34.180Z,6.20
2023-08-18T12:01:34.288Z,6.50
2023-08-18T12:02:34.137Z,6.20
2023-08-18T12:03:34.168Z,5.90
2023-08-18T12:04:34.112Z,6.70
2023-08-18T12:05:34.088Z,6.30
2023-08-18T12:06:34.164Z,6.50
2023-08-18T12:07:34.082Z,6.00
2023-08-18T12:08:34.064Z,6.80
2023-08-18T12:09:34.103Z,6.30
2023-08-18T12:10:34.038Z,6.40
2023-08-18T12:11:34.278Z,7.20
2023-08-18T12:12:34.054Z,6.40
2023-08-18T12:13:34.035Z,6.90
2023-08-18T12:14:34.007Z,6.90
2023-08-18T12:15:34.082Z,6.60
2023-08-18T12:16:33.984Z,6.90
2023-08-18T12:17:34.038Z,6.30
2023-08-18T12:18:33.954Z,6.20
2023-08-18T12:19:35.932Z,6.20
2023-08-18T12:20:33.938Z,6.70
2023-08-18T12:21:33.952Z,6.20
2023-08-18T12:22:33.916Z,6.00
2023-08-18T12:23:33.920Z,5.80
2023-08-18T12:24:33.888Z,5.90
2023-08-18T12:25:33.917Z,6.20
2023-08-18T12:26:33.897Z,5.70
2023-08-18T12:27:33.898Z,5.80
2023-08-18T12:28:33.858Z,5.80
2023-08-18T12:29:33.846Z,5.40
2023-08-18T12:30:33.848Z,5.90
2023-08-18T12:31:33.985Z,6.10
2023-08-18T12:32:34.155Z,6.00
2023-08-18T12:33:33.834Z,7.50
2023-08-18T12:34:33.814Z,6.20
2023-08-18T12:35:33.811Z,6.50
2023-08-18T12:36:33.782Z,6.90
2023-08-18T12:37:33.761Z,6.50
2023-08-18T12:38:33.776Z,6.30
2023-08-18T12:39:33.757Z,6.30
2023-08-18T12:40:33.737Z,6.80
2023-08-18T12:41:33.722Z,6.70
2023-08-18T12:42:33.898Z,5.90
2023-08-18T12:43:33.695Z,5.80
2023-08-18T12:44:33.689Z,6.30
2023-08-18T12:45:33.733Z,6.00
2023-08-18T12:46:33.712Z,6.50
2023-08-18T12:47:33.684Z,6.20
2023-08-18T12:48:33.676Z,6.30
2023-08-18T12:49:33.655Z,6.10
2023-08-18T12:50:33.638Z,6.40
2023-08-18T12:51:33.659Z,5.50
2023-08-18T12:52:33.606Z,6.30
2023-08-18T12:53:33.612Z,6.30
2023-08-18T12:54:33.616Z,6.60
2023-08-18T12:55:35.319Z,6.80
2023-08-18T12:56:33.568Z,6.00
2023-08-18T12:57:33.591Z,6.00
2023-08-18T12:58:33.553Z,6.60
2023-08-18T12:59:33.552Z,5.80